^^
Datos históricos de la estación: Murcia-Puente Tocinos
Diario Informe para Diciembre 23, 2019 Unidades:  Métrico    Ingés   Ambas
Diario Semanal Mensual Anual
  Máxima: Mínima: Promedio:
Temperatura: 21.8 °C 10.9 °C 15.5 °C
Punto de rocio: 9.2 °C 5.7 °C 7.2 °C
Humedad: 74% 36% 59%
Velocidad viento: 10.3km/h 0km/h 5km/h
Racha viento: 20.9km/h - -
Viento- - SSO
Presión: 1026.8 hPa 1020.1 hPa -
Precipitación: 0.0 mm    
 
 
Tabla de datos para Diciembre 23, 2019
Hora Temperatura Punto de rocio Presión Viento Velocidad viento Racha viento Humedad Intensidad lluvia(por hora) Nubes
00:04 14.9 °C 5.7 °C 1020.1 hPa SSO 5.8 km/h 11.9 km/h 54% 0.0 mm
00:09 15 °C 5.8 °C 1020.1 hPa SSO 5.8 km/h 11.3 km/h 54% 0.0 mm
00:14 15.2 °C 5.7 °C 1020.1 hPa SSO 6.9 km/h 11.3 km/h 53.2% 0.0 mm
00:19 15.5 °C 5.8 °C 1020.1 hPa SSO 7.6 km/h 10 km/h 52.3% 0.0 mm
00:24 15.6 °C 5.8 °C 1020.1 hPa SO 6.9 km/h 9.7 km/h 52% 0.0 mm
00:29 15.6 °C 5.8 °C 1020.1 hPa SO 6.5 km/h 8.4 km/h 52% 0.0 mm
00:34 15.5 °C 5.9 °C 1020.1 hPa SO 5.3 km/h 8.4 km/h 52.7% 0.0 mm
00:39 15.3 °C 5.9 °C 1020.1 hPa SO 4.6 km/h 8 km/h 53.6% 0.0 mm
00:44 15 °C 5.9 °C 1020.1 hPa Sur 4.1 km/h 7.4 km/h 54.7% 0.0 mm
00:49 14.6 °C 6 °C 1020.1 hPa ESE 3.9 km/h 8.4 km/h 56.3% 0.0 mm
00:54 14.2 °C 5.9 °C 1020.2 hPa Este 3.9 km/h 8.4 km/h 57.5% 0.0 mm
00:59 13.7 °C 6 °C 1020.2 hPa Este 3.9 km/h 8.4 km/h 59.4% 0.0 mm
01:04 13.4 °C 5.9 °C 1020.2 hPa ESE 4.6 km/h 8 km/h 60.5% 0.0 mm
01:09 13.3 °C 5.9 °C 1020.3 hPa ESE 5 km/h 8 km/h 61% 0.0 mm
01:14 13.3 °C 5.9 °C 1020.3 hPa ESE 3.9 km/h 8 km/h 61% 0.0 mm
01:19 13.3 °C 6.1 °C 1020.3 hPa SSO 3.2 km/h 6.4 km/h 61.5% 0.0 mm
01:24 13.2 °C 6.1 °C 1020.5 hPa OSO 3 km/h 7.4 km/h 62% 0.0 mm
01:29 13.1 °C 6.2 °C 1020.5 hPa SO 2.9 km/h 8 km/h 62.7% 0.0 mm
01:34 13.1 °C 6.2 °C 1020.5 hPa ONO 3.1 km/h 8 km/h 63% 0.0 mm
01:39 13.1 °C 6.2 °C 1020.8 hPa ONO 3.2 km/h 4.8 km/h 63% 0.0 mm
01:44 13 °C 6.3 °C 1020.8 hPa ONO 2.6 km/h 6.4 km/h 63.8% 0.0 mm
01:49 12.9 °C 6.3 °C 1020.8 hPa ONO 2.2 km/h 8 km/h 64% 0.0 mm
01:54 12.9 °C 6.2 °C 1020.8 hPa ONO 2.6 km/h 7.4 km/h 64% 0.0 mm
01:59 12.9 °C 6.2 °C 1020.8 hPa Oeste 2.9 km/h 8 km/h 64% 0.0 mm
02:04 12.9 °C 6.5 °C 1020.8 hPa SSE 3.1 km/h 8 km/h 64.8% 0.0 mm
02:09 13 °C 6.3 °C 1020.9 hPa SSE 3.2 km/h 8 km/h 64% 0.0 mm
02:14 13.1 °C 6.5 °C 1020.9 hPa Sur 3.6 km/h 10 km/h 64% 0.0 mm
02:19 13.2 °C 6.5 °C 1020.9 hPa Sur 3.9 km/h 9.7 km/h 63.7% 0.0 mm
02:24 13.2 °C 6.4 °C 1021.1 hPa SSE 4.5 km/h 9.7 km/h 63.6% 0.0 mm
02:29 13.2 °C 6.5 °C 1021.1 hPa SSE 5 km/h 10 km/h 63.8% 0.0 mm
02:34 13.5 °C 6.5 °C 1021.1 hPa Sur 5.9 km/h 10 km/h 62.9% 0.0 mm
02:39 13.7 °C 6.5 °C 1021.1 hPa SSE 6.5 km/h 11.1 km/h 62% 0.0 mm
02:44 13.9 °C 6.5 °C 1021.1 hPa SSE 6.8 km/h 11.3 km/h 61% 0.0 mm
02:49 14 °C 6.5 °C 1021.1 hPa Sur 6.9 km/h 11.3 km/h 60.6% 0.0 mm
02:54 14.2 °C 6.5 °C 1021.4 hPa SE 5.6 km/h 8.4 km/h 60% 0.0 mm
02:59 14.2 °C 6.5 °C 1021.4 hPa SE 4.7 km/h 8.4 km/h 60% 0.0 mm
03:04 13.9 °C 6.5 °C 1021.4 hPa SSE 4.9 km/h 8 km/h 60.8% 0.0 mm
03:09 13.8 °C 6.5 °C 1021.7 hPa Sur 5 km/h 8 km/h 61.4% 0.0 mm
03:14 13.7 °C 6.6 °C 1021.7 hPa NE 3.9 km/h 6.4 km/h 62% 0.0 mm
03:19 13.7 °C 6.5 °C 1021.7 hPa NO 3.2 km/h 9.3 km/h 62.2% 0.0 mm
03:24 13.4 °C 6.5 °C 1022.0 hPa OSO 3.2 km/h 9.7 km/h 63.2% 0.0 mm
03:29 13.2 °C 6.5 °C 1022.0 hPa OSO 3.2 km/h 8 km/h 64% 0.0 mm
03:34 13 °C 6.5 °C 1022.0 hPa ONO 4.1 km/h 9.3 km/h 64.5% 0.0 mm
03:39 12.8 °C 6.5 °C 1022.1 hPa ONO 4.7 km/h 9.7 km/h 65% 0.0 mm
03:44 12.8 °C 6.6 °C 1022.1 hPa SO 4.2 km/h 8 km/h 65.9% 0.0 mm
03:49 12.8 °C 6.6 °C 1022.1 hPa SO 3.9 km/h 9.3 km/h 65.8% 0.0 mm
03:54 12.9 °C 6.5 °C 1022.2 hPa SSO 4.4 km/h 9.7 km/h 65% 0.0 mm
03:59 13.1 °C 6.7 °C 1022.2 hPa SSO 4.7 km/h 8 km/h 65% 0.0 mm
04:04 13.2 °C 6.7 °C 1022.2 hPa Sur 4.1 km/h 11.1 km/h 65% 0.0 mm
04:09 13.2 °C 6.8 °C 1022.2 hPa Oeste 3.9 km/h 11.3 km/h 65% 0.0 mm
04:14 13.2 °C 6.8 °C 1022.1 hPa SSO 4.3 km/h 9.7 km/h 65% 0.0 mm
04:19 13.3 °C 6.8 °C 1022.1 hPa Sur 4.7 km/h 8 km/h 65% 0.0 mm
04:24 13.2 °C 6.8 °C 1022.1 hPa SO 4.7 km/h 8 km/h 65% 0.0 mm
04:29 13.2 °C 6.8 °C 1022.1 hPa Oeste 4.7 km/h 8 km/h 65% 0.0 mm
04:34 13 °C 6.7 °C 1022.1 hPa Sur 4.7 km/h 9.5 km/h 65.5% 0.0 mm
04:39 12.8 °C 6.7 °C 1022.3 hPa SSO 4.6 km/h 11.1 km/h 66.5% 0.0 mm
04:44 12.7 °C 6.7 °C 1022.3 hPa SSO 6 km/h 11.3 km/h 67% 0.0 mm
04:49 12.8 °C 6.8 °C 1022.3 hPa SSO 6.9 km/h 14.8 km/h 67% 0.0 mm
04:54 12.8 °C 6.8 °C 1022.3 hPa SSO 7.8 km/h 14.5 km/h 66.3% 0.0 mm
04:59 13.1 °C 6.8 °C 1022.3 hPa SSO 8.4 km/h 14.8 km/h 65.4% 0.0 mm
05:04 13.2 °C 6.8 °C 1022.3 hPa Sur 7 km/h 14.5 km/h 65% 0.0 mm
05:09 13.2 °C 6.8 °C 1022.5 hPa SSE 6.5 km/h 7.4 km/h 65% 0.0 mm
05:14 13.1 °C 6.7 °C 1022.5 hPa SSO 4.9 km/h 9.3 km/h 65.3% 0.0 mm
05:19 12.8 °C 6.7 °C 1022.5 hPa SSE 3.9 km/h 9.7 km/h 66% 0.0 mm
05:24 12.7 °C 6.7 °C 1022.5 hPa Sur 3.9 km/h 8.4 km/h 66.9% 0.0 mm
05:29 12.6 °C 6.7 °C 1022.5 hPa SSO 3.9 km/h 9.3 km/h 67.3% 0.0 mm
05:34 12.5 °C 6.8 °C 1022.5 hPa SSO 4.6 km/h 9.7 km/h 68% 0.0 mm
05:39 12.4 °C 6.7 °C 1022.6 hPa SSO 5 km/h 9.7 km/h 68% 0.0 mm
05:44 12.4 °C 6.7 °C 1022.6 hPa SSO 5.5 km/h 9.7 km/h 68% 0.0 mm
05:49 12.4 °C 6.7 °C 1022.6 hPa SO 5.8 km/h 9.7 km/h 68% 0.0 mm
05:54 12.6 °C 6.7 °C 1022.7 hPa SSO 5.8 km/h 9.7 km/h 67.3% 0.0 mm
05:59 12.6 °C 6.6 °C 1022.7 hPa SSO 5.8 km/h 9.5 km/h 67% 0.0 mm
06:04 12.6 °C 6.6 °C 1022.7 hPa SSE 5.3 km/h 10 km/h 67% 0.0 mm
06:09 12.5 °C 6.5 °C 1023.0 hPa SSE 5 km/h 9.7 km/h 67% 0.0 mm
06:14 12.3 °C 6.5 °C 1023.0 hPa Sur 5.9 km/h 10 km/h 67.7% 0.0 mm
06:19 12.1 °C 6.5 °C 1023.0 hPa SSO 6.5 km/h 9.7 km/h 68.7% 0.0 mm
06:24 11.9 °C 6.5 °C 1023.2 hPa SSO 5.6 km/h 10 km/h 69.4% 0.0 mm
06:29 11.8 °C 6.5 °C 1023.2 hPa SSO 5 km/h 9.7 km/h 70% 0.0 mm
06:34 11.9 °C 6.6 °C 1023.2 hPa SO 5 km/h 9.7 km/h 70% 0.0 mm
06:39 11.9 °C 6.6 °C 1023.4 hPa SO 5 km/h 8 km/h 70% 0.0 mm
06:44 12 °C 6.7 °C 1023.4 hPa SO 3.7 km/h 4.8 km/h 70% 0.0 mm
06:49 11.9 °C 6.6 °C 1023.4 hPa SO 2.9 km/h 3.9 km/h 70% 0.0 mm
06:54 11.9 °C 6.6 °C 1023.6 hPa SO 2.5 km/h 3.9 km/h 70% 0.0 mm
06:59 11.8 °C 6.5 °C 1023.6 hPa SO 2.2 km/h 3.9 km/h 70.2% 0.0 mm
07:04 11.7 °C 6.6 °C 1023.6 hPa SO 2.2 km/h 7.4 km/h 71% 0.0 mm
07:09 11.7 °C 6.8 °C 1023.7 hPa SO 2.2 km/h 8 km/h 71.8% 0.0 mm
07:14 11.6 °C 6.7 °C 1023.7 hPa SO 2.9 km/h 5.8 km/h 72% 0.0 mm
07:19 11.6 °C 6.7 °C 1023.7 hPa SO 3.2 km/h 6.4 km/h 72% 0.0 mm
07:24 11.6 °C 6.5 °C 1024.0 hPa SO 3 km/h 6.4 km/h 71.2% 0.0 mm
07:29 11.6 °C 6.6 °C 1024.0 hPa SO 2.9 km/h 5.6 km/h 71.6% 0.0 mm
07:34 11.5 °C 6.6 °C 1024.0 hPa Sur 2.5 km/h 7.4 km/h 71.6% 0.0 mm
07:39 11.3 °C 6.5 °C 1024.1 hPa SE 2.2 km/h 8 km/h 72% 0.0 mm
07:44 11.2 °C 6.5 °C 1024.1 hPa SSO 3.7 km/h 8 km/h 72.9% 0.0 mm
07:49 11.1 °C 6.6 °C 1024.1 hPa SSO 4.7 km/h 9.3 km/h 73.9% 0.0 mm
07:54 11.2 °C 6.5 °C 1024.4 hPa SSO 4.8 km/h 9.7 km/h 73.2% 0.0 mm
07:59 11.3 °C 6.6 °C 1024.4 hPa SSO 5 km/h 6.4 km/h 73% 0.0 mm
08:04 11.3 °C 6.6 °C 1024.4 hPa SSO 3.6 km/h 4.8 km/h 73% 0.0 mm
08:09 11.2 °C 6.6 °C 1024.8 hPa SSO 2.9 km/h 5.8 km/h 73% 0.0 mm
08:14 11.1 °C 6.5 °C 1024.8 hPa SSO 3.1 km/h 7.4 km/h 73.1% 0.0 mm
08:19 11 °C 6.6 °C 1024.8 hPa SSO 3.2 km/h 8 km/h 74% 0.0 mm
08:24 11 °C 6.5 °C 1024.9 hPa SSO 2.6 km/h 3.7 km/h 74% 0.0 mm
08:29 10.9 °C 6.5 °C 1024.9 hPa SSO 2.2 km/h 4.7 km/h 74% 0.0 mm
08:34 10.9 °C 6.4 °C 1024.9 hPa SSO 2.6 km/h 4.8 km/h 74% 0.0 mm
08:39 10.9 °C 6.4 °C 1025.1 hPa SSO 2.9 km/h 5.8 km/h 74% 0.0 mm
08:44 11 °C 6.5 °C 1025.1 hPa SSO 2.9 km/h 6.4 km/h 74% 0.0 mm
08:49 11.2 °C 6.7 °C 1025.1 hPa SSO 2.9 km/h 4.8 km/h 73.9% 0.0 mm
08:54 11.2 °C 6.6 °C 1025.3 hPa SSO 2.5 km/h 3.7 km/h 73% 0.0 mm
08:59 11.3 °C 6.6 °C 1025.3 hPa SO 2.2 km/h 3.9 km/h 72.8% 0.0 mm
09:04 11.3 °C 6.5 °C 1025.3 hPa SO 2.2 km/h 3.9 km/h 72.3% 0.0 mm
09:09 11.3 °C 6.6 °C 1025.5 hPa SO 2.2 km/h 3.9 km/h 73% 0.0 mm
09:14 11.2 °C 6.6 °C 1025.5 hPa SO 0.9 km/h 3.9 km/h 73% 0.0 mm
09:19 11.3 °C 6.6 °C 1025.5 hPa Calm   3.7 km/h 73% 0.0 mm
09:24 11.3 °C 6.7 °C 1025.9 hPa Calm   3.2 km/h 73% 0.0 mm
09:29 11.5 °C 6.9 °C 1025.9 hPa Calm   3.9 km/h 72.9% 0.0 mm
09:34 11.8 °C 6.9 °C 1025.9 hPa Calm   5.6 km/h 72% 0.0 mm
09:39 12 °C 7.1 °C 1026.1 hPa Calm   5.8 km/h 72% 0.0 mm
09:44 12.3 °C 7.2 °C 1026.1 hPa SO 2 km/h 6.4 km/h 71.3% 0.0 mm
09:49 12.5 °C 7.1 °C 1026.1 hPa SO 3.2 km/h 8.4 km/h 70% 0.0 mm
09:54 12.7 °C 7.1 °C 1026.3 hPa SO 4.3 km/h 10 km/h 69% 0.0 mm
09:59 12.8 °C 7.3 °C 1026.3 hPa SSO 5 km/h 9.7 km/h 69% 0.0 mm
10:04 13 °C 7.5 °C 1026.3 hPa SO 4.3 km/h 8 km/h 69% 0.0 mm
10:09 13.3 °C 7.5 °C 1026.4 hPa SO 3.9 km/h 8 km/h 67.8% 0.0 mm
10:14 13.7 °C 7.6 °C 1026.4 hPa SSO 3.5 km/h 8 km/h 66.8% 0.0 mm
10:19 14 °C 7.6 °C 1026.4 hPa Sur 3.2 km/h 8 km/h 65.2% 0.0 mm
10:24 14.3 °C 7.5 °C 1026.6 hPa SSO 4.1 km/h 8 km/h 63.8% 0.0 mm
10:29 14.5 °C 7.5 °C 1026.6 hPa SSO 4.7 km/h 8 km/h 62.9% 0.0 mm
10:34 14.7 °C 7.5 °C 1026.6 hPa OSO 4.1 km/h 7.6 km/h 62% 0.0 mm
10:39 14.8 °C 7.4 °C 1026.7 hPa SO 3.9 km/h 8.4 km/h 61.5% 0.0 mm
10:44 14.9 °C 7.4 °C 1026.7 hPa OSO 4.6 km/h 8.7 km/h 61% 0.0 mm
10:49 14.9 °C 7.3 °C 1026.7 hPa OSO 5 km/h 9.7 km/h 60.4% 0.0 mm
10:54 15 °C 7.3 °C 1026.7 hPa OSO 5.5 km/h 9.7 km/h 60.1% 0.0 mm
10:59 15.2 °C 7.5 °C 1026.7 hPa SSO 5.8 km/h 8 km/h 60.3% 0.0 mm
11:04 15.4 °C 7.6 °C 1026.7 hPa SSO 5.3 km/h 8.4 km/h 59.8% 0.0 mm
11:09 15.7 °C 7.6 °C 1026.7 hPa SSO 5 km/h 11.1 km/h 58.4% 0.0 mm
11:14 15.8 °C 7.6 °C 1026.7 hPa SSO 5.9 km/h 11.3 km/h 58% 0.0 mm
11:19 16 °C 7.7 °C 1026.7 hPa Sur 6.5 km/h 9.7 km/h 58% 0.0 mm
11:24 16.3 °C 7.9 °C 1026.8 hPa SSO 6.1 km/h 9.5 km/h 57.6% 0.0 mm
11:29 16.4 °C 7.5 °C 1026.8 hPa Sur 5.8 km/h 12.2 km/h 55.5% 0.0 mm
11:34 16.7 °C 7.6 °C 1026.8 hPa Sur 6.5 km/h 13 km/h 55% 0.0 mm
11:39 16.8 °C 7.8 °C 1026.8 hPa Sur 6.9 km/h 12.9 km/h 55% 0.0 mm
11:44 17 °C 7.9 °C 1026.7 hPa SSO 7.3 km/h 13 km/h 54.7% 0.0 mm
11:49 17.1 °C 7.7 °C 1026.7 hPa Sur 7.6 km/h 15.6 km/h 53.9% 0.0 mm
11:54 17.1 °C 7.7 °C 1026.7 hPa Sur 8.8 km/h 16.1 km/h 54% 0.0 mm
11:59 17.2 °C 7.7 °C 1026.5 hPa Sur 9.5 km/h 16.1 km/h 53.8% 0.0 mm
12:04 17.2 °C 7.6 °C 1026.5 hPa Sur 9.8 km/h 16.7 km/h 53.2% 0.0 mm
12:09 17.3 °C 7.8 °C 1026.5 hPa Sur 10 km/h 16.7 km/h 53.5% 0.0 mm
12:14 17.6 °C 7.9 °C 1026.4 hPa SSO 10 km/h 16.1 km/h 53.1% 0.0 mm
12:19 17.8 °C 7.9 °C 1026.4 hPa Sur 10 km/h 14.5 km/h 52.4% 0.0 mm
12:24 18 °C 7.6 °C 1026.4 hPa SSO 8.9 km/h 14.8 km/h 50.9% 0.0 mm
12:29 18 °C 7.4 °C 1026.2 hPa SSO 8.4 km/h 14.8 km/h 50.2% 0.0 mm
12:34 18 °C 7.4 °C 1026.2 hPa SO 9.4 km/h 14.5 km/h 50.2% 0.0 mm
12:39 18.2 °C 7.6 °C 1026.2 hPa SSO 10 km/h 13 km/h 50.1% 0.0 mm
12:44 18.3 °C 7.5 °C 1026.1 hPa SSO 8.1 km/h 12.9 km/h 49.2% 0.0 mm
12:49 18.5 °C 7.3 °C 1026.1 hPa SSO 6.9 km/h 11.3 km/h 48.2% 0.0 mm
12:54 18.6 °C 7.4 °C 1026.1 hPa SO 6.6 km/h 9.7 km/h 48% 0.0 mm
12:59 18.8 °C 7.3 °C 1025.9 hPa ESE 6.5 km/h 9.5 km/h 47% 0.0 mm
13:04 18.9 °C 6.9 °C 1025.9 hPa OSO 5.3 km/h 10 km/h 45.7% 0.0 mm
13:09 19 °C 6.8 °C 1025.9 hPa SO 4.7 km/h 9.7 km/h 45% 0.0 mm
13:14 19.1 °C 6.9 °C 1025.6 hPa OSO 4.7 km/h 9.7 km/h 45% 0.0 mm
13:19 19.3 °C 6.8 °C 1025.6 hPa Sur 4.7 km/h 11.1 km/h 44.2% 0.0 mm
13:24 19.3 °C 6.8 °C 1025.6 hPa Sur 4.9 km/h 11.3 km/h 44% 0.0 mm
13:29 19.5 °C 6.6 °C 1025.4 hPa OSO 5 km/h 9.5 km/h 43.3% 0.0 mm
13:34 19.5 °C 6.8 °C 1025.4 hPa SSO 5 km/h 9.7 km/h 43.7% 0.0 mm
13:39 19.6 °C 6.8 °C 1025.4 hPa SSO 5 km/h 8.4 km/h 43.3% 0.0 mm
13:44 19.7 °C 6.8 °C 1025.2 hPa Sur 4.8 km/h 8 km/h 43% 0.0 mm
13:49 19.9 °C 6.8 °C 1025.2 hPa ESE 4.7 km/h 8 km/h 42.5% 0.0 mm
13:54 20.1 °C 6.7 °C 1025.2 hPa SE 3.7 km/h 8 km/h 41.9% 0.0 mm
13:59 20.1 °C 6.5 °C 1024.9 hPa SSO 3.2 km/h 8.4 km/h 41.3% 0.0 mm
14:04 20.1 °C 6.5 °C 1024.9 hPa Oeste 4.2 km/h 8 km/h 41% 0.0 mm
14:09 20.1 °C 6.4 °C 1024.9 hPa Oeste 4.6 km/h 9.3 km/h 41% 0.0 mm
14:14 20.1 °C 6.4 °C 1024.9 hPa Oeste 4.8 km/h 9.7 km/h 41% 0.0 mm
14:19 20.2 °C 6.3 °C 1024.9 hPa ONO 5 km/h 8 km/h 40.3% 0.0 mm
14:24 20.2 °C 6.2 °C 1024.9 hPa ONO 4.3 km/h 8 km/h 40% 0.0 mm
14:29 20.3 °C 6.3 °C 1024.8 hPa OSO 3.9 km/h 8 km/h 40% 0.0 mm
14:34 20.5 °C 6.3 °C 1024.8 hPa SSE 3.5 km/h 8 km/h 39.7% 0.0 mm
14:39 20.6 °C 6.2 °C 1024.8 hPa SSE 3.2 km/h 8 km/h 39% 0.0 mm
14:44 20.7 °C 6.3 °C 1024.6 hPa SSE 3.6 km/h 8 km/h 39% 0.0 mm
14:49 20.9 °C 6.2 °C 1024.6 hPa SSO 3.9 km/h 7.6 km/h 38.4% 0.0 mm
14:54 21 °C 5.9 °C 1024.6 hPa SO 3.3 km/h 8 km/h 37.3% 0.0 mm
14:59 21.2 °C 5.7 °C 1024.6 hPa SSE 2.9 km/h 8 km/h 36.6% 0.0 mm
15:04 21.3 °C 5.7 °C 1024.6 hPa ENE 2.5 km/h 5.8 km/h 36.4% 0.0 mm
15:09 21.4 °C 5.8 °C 1024.6 hPa SO 2.2 km/h 8.4 km/h 36.3% 0.0 mm
15:14 21.4 °C 5.7 °C 1024.6 hPa Sur 2.9 km/h 8 km/h 36% 0.0 mm
15:19 21.5 °C 5.8 °C 1024.6 hPa SSE 3.2 km/h 6.9 km/h 36.2% 0.0 mm
15:24 21.6 °C 6.2 °C 1024.6 hPa SO 3.6 km/h 9.5 km/h 37% 0.0 mm
15:29 21.4 °C 6.1 °C 1024.5 hPa Oeste 3.9 km/h 9.7 km/h 37% 0.0 mm
15:34 21.5 °C 6.2 °C 1024.5 hPa Sur 3.9 km/h 8.4 km/h 37% 0.0 mm
15:39 21.6 °C 6.1 °C 1024.5 hPa SO 3.9 km/h 8 km/h 36.5% 0.0 mm
15:44 21.6 °C 6 °C 1024.4 hPa SO 4.3 km/h 8.4 km/h 36.1% 0.0 mm
15:49 21.7 °C 5.9 °C 1024.4 hPa SSO 4.7 km/h 8 km/h 36% 0.0 mm
15:54 21.7 °C 5.9 °C 1024.4 hPa Sur 4.2 km/h 8 km/h 36% 0.0 mm
15:59 21.7 °C 6 °C 1024.4 hPa SO 3.9 km/h 10 km/h 36.1% 0.0 mm
16:04 21.7 °C 6 °C 1024.4 hPa SSO 4.4 km/h 9.7 km/h 36.1% 0.0 mm
16:09 21.8 °C 6.1 °C 1024.4 hPa Sur 5 km/h 9.7 km/h 36.1% 0.0 mm
16:14 21.7 °C 6.4 °C 1024.4 hPa SE 4.8 km/h 10 km/h 37% 0.0 mm
16:19 21.7 °C 6.5 °C 1024.4 hPa SSE 4.6 km/h 9.7 km/h 37.3% 0.0 mm
16:24 21.6 °C 6.5 °C 1024.4 hPa SSE 5.4 km/h 10.3 km/h 37.4% 0.0 mm
16:29 21.4 °C 6.6 °C 1024.3 hPa SSE 5.8 km/h 13 km/h 38.3% 0.0 mm
16:34 21.3 °C 6.8 °C 1024.3 hPa SSE 7.4 km/h 13.7 km/h 39.1% 0.0 mm
16:39 21.1 °C 7 °C 1024.3 hPa SSE 8.4 km/h 14.5 km/h 40.1% 0.0 mm
16:44 21.1 °C 7.3 °C 1024.3 hPa Sur 8.6 km/h 13 km/h 40.9% 0.0 mm
16:49 21.1 °C 7.3 °C 1024.3 hPa Sur 8.7 km/h 14.8 km/h 41% 0.0 mm
16:54 21 °C 7.6 °C 1024.4 hPa Sur 9.2 km/h 14.5 km/h 41.9% 0.0 mm
16:59 20.9 °C 7.6 °C 1024.4 hPa SSE 9.5 km/h 13 km/h 42.2% 0.0 mm
17:04 20.8 °C 7.8 °C 1024.4 hPa SSE 9 km/h 13.7 km/h 43% 0.0 mm
17:09 20.8 °C 7.8 °C 1024.4 hPa Sur 8.7 km/h 14.5 km/h 43.1% 0.0 mm
17:14 20.7 °C 7.7 °C 1024.4 hPa Sur 8 km/h 12.9 km/h 43% 0.0 mm
17:19 20.8 °C 7.8 °C 1024.4 hPa Sur 7.6 km/h 9.7 km/h 43.1% 0.0 mm
17:24 20.8 °C 7.8 °C 1024.5 hPa Sur 6.9 km/h 11.1 km/h 43.2% 0.0 mm
17:29 20.7 °C 8 °C 1024.5 hPa SSE 6.5 km/h 11.3 km/h 44% 0.0 mm
17:34 20.7 °C 8 °C 1024.5 hPa SSE 4.9 km/h 7.4 km/h 44% 0.0 mm
17:39 20.5 °C 8.1 °C 1024.6 hPa SE 3.9 km/h 8 km/h 44.8% 0.0 mm
17:44 20.3 °C 8.2 °C 1024.6 hPa SE 3.9 km/h 8 km/h 45.7% 0.0 mm
17:49 20.1 °C 8.4 °C 1024.6 hPa SSE 3.9 km/h 8 km/h 46.9% 0.0 mm
17:54 19.8 °C 8.4 °C 1024.6 hPa SSE 3.9 km/h 8 km/h 47.9% 0.0 mm
17:59 19.6 °C 8.6 °C 1024.6 hPa SSE 3.9 km/h 8 km/h 48.9% 0.0 mm
18:04 19.4 °C 8.7 °C 1024.6 hPa SSE 4.6 km/h 8 km/h 49.9% 0.0 mm
18:09 19.3 °C 8.8 °C 1024.7 hPa SSE 5 km/h 8 km/h 50.8% 0.0 mm
18:14 19.2 °C 8.8 °C 1024.7 hPa SSE 4.3 km/h 8 km/h 51% 0.0 mm
18:19 19 °C 8.7 °C 1024.7 hPa ESE 3.9 km/h 9.3 km/h 51% 0.0 mm
18:24 18.7 °C 8.6 °C 1024.9 hPa ESE 3.9 km/h 9.7 km/h 51.9% 0.0 mm
18:29 18.5 °C 8.6 °C 1024.9 hPa ESE 3.9 km/h 8 km/h 52.5% 0.0 mm
18:34 18.3 °C 8.6 °C 1024.9 hPa SSE 3.9 km/h 8 km/h 53.1% 0.0 mm
18:39 18.2 °C 8.7 °C 1024.9 hPa Sur 3.9 km/h 9.5 km/h 54% 0.0 mm
18:44 18.1 °C 8.8 °C 1024.9 hPa SSO 5.4 km/h 11.1 km/h 54.5% 0.0 mm
18:49 18 °C 8.9 °C 1024.9 hPa SSO 6.5 km/h 12.2 km/h 55% 0.0 mm
18:54 17.9 °C 9 °C 1025.1 hPa SO 7.2 km/h 16.1 km/h 55.9% 0.0 mm
18:59 17.7 °C 9.1 °C 1025.1 hPa SO 7.6 km/h 17.2 km/h 57% 0.0 mm
19:04 17.5 °C 9.1 °C 1025.1 hPa SO 9.2 km/h 20.9 km/h 58% 0.0 mm
19:09 17.3 °C 9.2 °C 1025.3 hPa SO 10 km/h 20.9 km/h 58.9% 0.0 mm
19:14 17.2 °C 9.2 °C 1025.3 hPa SO 10.2 km/h 19.3 km/h 59.3% 0.0 mm
19:19 17 °C 9.2 °C 1025.3 hPa SO 10.3 km/h 19.3 km/h 60% 0.0 mm
19:24 16.8 °C 9.1 °C 1025.3 hPa SSO 10.3 km/h 19.3 km/h 60.3% 0.0 mm
19:29 16.7 °C 9.1 °C 1025.3 hPa SSO 10.3 km/h 17.2 km/h 61% 0.0 mm
19:34 16.6 °C 9.1 °C 1025.3 hPa SO 9.1 km/h 17.7 km/h 61% 0.0 mm
19:39 16.4 °C 9.1 °C 1025.5 hPa SO 8.4 km/h 18.5 km/h 61.7% 0.0 mm
19:44 16.3 °C 9.1 °C 1025.5 hPa SO 9.1 km/h 19.3 km/h 62% 0.0 mm
19:49 16.3 °C 9 °C 1025.5 hPa SSO 9.5 km/h 19.3 km/h 62% 0.0 mm
19:54 16.2 °C 8.9 °C 1025.5 hPa SSO 9 km/h 14.5 km/h 62% 0.0 mm
19:59 16.2 °C 8.9 °C 1025.5 hPa SSO 8.7 km/h 14.5 km/h 62% 0.0 mm
20:04 16.1 °C 8.9 °C 1025.5 hPa SSO 7.5 km/h 14.5 km/h 62.4% 0.0 mm
20:09 15.9 °C 8.9 °C 1025.7 hPa SSO 6.9 km/h 14.5 km/h 63% 0.0 mm
20:14 15.8 °C 8.8 °C 1025.7 hPa SSO 7.3 km/h 11.9 km/h 63.2% 0.0 mm
20:19 15.7 °C 8.9 °C 1025.7 hPa SSO 7.6 km/h 14.8 km/h 64% 0.0 mm
20:24 15.6 °C 8.8 °C 1025.7 hPa SSO 8.7 km/h 14.8 km/h 64.1% 0.0 mm
20:29 15.4 °C 8.9 °C 1025.7 hPa SSO 9.5 km/h 14.8 km/h 65% 0.0 mm
20:34 15.4 °C 8.8 °C 1025.7 hPa SSO 9.5 km/h 14.5 km/h 65% 0.0 mm
20:39 15.4 °C 8.8 °C 1025.8 hPa SSO 9.5 km/h 13 km/h 65% 0.0 mm
20:44 15.4 °C 8.8 °C 1025.8 hPa SSO 8.8 km/h 12.9 km/h 65% 0.0 mm
20:49 15.3 °C 8.8 °C 1025.8 hPa SSO 8.4 km/h 12.2 km/h 65% 0.0 mm
20:54 15.2 °C 8.8 °C 1026.0 hPa SSO 8.4 km/h 13 km/h 65.6% 0.0 mm
20:59 15.2 °C 8.9 °C 1026.0 hPa SO 8.4 km/h 11.3 km/h 66% 0.0 mm
21:04 15.1 °C 8.8 °C 1026.0 hPa SSO 7.1 km/h 10 km/h 66% 0.0 mm
21:09 15 °C 8.9 °C 1026.1 hPa Sur 6.5 km/h 9.7 km/h 66.6% 0.0 mm
21:14 14.9 °C 8.8 °C 1026.1 hPa Sur 6.1 km/h 8.7 km/h 67% 0.0 mm
21:19 14.8 °C 8.8 °C 1026.1 hPa SSO 5.8 km/h 9.7 km/h 67% 0.0 mm
21:24 14.8 °C 8.7 °C 1026.3 hPa Sur 4.5 km/h 9.7 km/h 67% 0.0 mm
21:29 14.7 °C 8.8 °C 1026.3 hPa SSO 3.9 km/h 7.6 km/h 67.7% 0.0 mm
21:34 14.6 °C 8.8 °C 1026.3 hPa SO 4.4 km/h 9.5 km/h 68% 0.0 mm
21:39 14.5 °C 8.7 °C 1026.3 hPa SO 4.7 km/h 11.1 km/h 68% 0.0 mm
21:44 14.4 °C 8.6 °C 1026.3 hPa OSO 5.3 km/h 11.3 km/h 68% 0.0 mm
21:49 14.3 °C 8.5 °C 1026.3 hPa OSO 5.8 km/h 9.3 km/h 68% 0.0 mm
21:54 14.3 °C 8.5 °C 1026.4 hPa SO 5.1 km/h 9.7 km/h 68.1% 0.0 mm
21:59 14.2 °C 8.6 °C 1026.4 hPa SSO 4.7 km/h 8.4 km/h 69% 0.0 mm
22:04 14.2 °C 8.6 °C 1026.4 hPa SO 4.6 km/h 8 km/h 69% 0.0 mm
22:09 14.1 °C 8.5 °C 1026.6 hPa NNE 4.7 km/h 7.6 km/h 69% 0.0 mm
22:14 13.8 °C 8.4 °C 1026.6 hPa NNE 4.1 km/h 8 km/h 69.6% 0.0 mm
22:19 13.6 °C 8.3 °C 1026.6 hPa NE 3.9 km/h 8.4 km/h 70.7% 0.0 mm
22:24 13.3 °C 8.3 °C 1026.6 hPa NE 4.6 km/h 8 km/h 71.9% 0.0 mm
22:29 13.2 °C 8.4 °C 1026.6 hPa NE 5 km/h 8 km/h 72.5% 0.0 mm
22:34 13.1 °C 8.4 °C 1026.6 hPa NE 1.8 km/h 3.9 km/h 73% 0.0 mm
22:39 13.1 °C 8.4 °C 1026.6 hPa Calm   3.9 km/h 73% 0.0 mm
22:44 13.1 °C 8.4 °C 1026.6 hPa Calm   5.8 km/h 73% 0.0 mm
22:49 13 °C 8.3 °C 1026.6 hPa Calm   9.5 km/h 73% 0.0 mm
22:54 13 °C 8.2 °C 1026.7 hPa SSO 3.1 km/h 9.7 km/h 73% 0.0 mm
22:59 12.9 °C 8.2 °C 1026.7 hPa SSO 5 km/h 11.9 km/h 73% 0.0 mm
23:04 12.9 °C 8.2 °C 1026.7 hPa SO 6.3 km/h 11.3 km/h 73% 0.0 mm
23:09 12.9 °C 8.1 °C 1026.7 hPa SO 6.9 km/h 11.3 km/h 72.8% 0.0 mm
23:14 12.9 °C 7.9 °C 1026.7 hPa SO 6.2 km/h 9.7 km/h 72% 0.0 mm
23:19 12.9 °C 7.9 °C 1026.7 hPa SO 5.8 km/h 9.7 km/h 72% 0.0 mm
23:24 12.9 °C 8 °C 1026.7 hPa SO 4.6 km/h 8 km/h 72.2% 0.0 mm
23:29 12.8 °C 8.1 °C 1026.7 hPa SSO 3.9 km/h 8 km/h 73% 0.0 mm
23:34 12.8 °C 8.1 °C 1026.7 hPa Sur 3.9 km/h 6.4 km/h 73% 0.0 mm
23:39 12.8 °C 8.1 °C 1026.8 hPa Sur 3.9 km/h 4.8 km/h 73% 0.0 mm
23:44 12.8 °C 8.1 °C 1026.8 hPa Sur 1.5 km/h 4.7 km/h 73% 0.0 mm
23:49 12.8 °C 8.1 °C 1026.8 hPa Calm   4.8 km/h 73% 0.0 mm
23:54 12.8 °C 8.1 °C 1026.8 hPa Calm   7.4 km/h 73% 0.0 mm
23:59 12.8 °C 8.1 °C 1026.8 hPa Calm   8 km/h 73% 0.0 mm
Murcia-Puente Tocinos, España
Compliments of Weather Underground - 2.75 mb

La estación de MeteoMurcia.com, publica sus datos en los siguientes proyectos:

Weather Underground PWS IMURCIAP2 Meteoclimatic www.awekas.at

W3Counter
Web Analytics